createdAt,value
2018-11-05T10:50:15.088Z,99122.00
2018-11-05T10:52:47.428Z,99117.00
2018-11-05T10:55:17.941Z,99129.00
2018-11-05T10:57:49.152Z,99117.00
2018-11-05T11:00:27.306Z,99107.00
2018-11-05T11:03:02.991Z,99110.00
2018-11-05T11:05:33.379Z,99108.00
2018-11-05T11:08:03.759Z,99099.00
2018-11-05T11:10:34.432Z,99104.00
2018-11-05T11:13:04.579Z,99108.00
2018-11-05T11:15:35.620Z,99101.00
2018-11-05T11:18:06.546Z,99097.00
2018-11-05T11:20:36.708Z,99098.00
2018-11-05T11:23:07.547Z,99104.00
2018-11-05T11:25:38.046Z,99093.00
2018-11-05T11:28:08.570Z,99099.00
2018-11-05T11:30:39.788Z,99093.00
2018-11-05T11:33:10.537Z,99087.00
2018-11-05T11:35:40.638Z,99092.00
2018-11-05T11:38:10.835Z,99077.00
2018-11-05T11:40:41.697Z,99081.00
2018-11-05T11:43:11.825Z,99075.00
2018-11-05T11:45:42.112Z,99075.00
2018-11-05T11:48:12.181Z,99066.00
2018-11-05T11:50:42.553Z,99062.00
2018-11-05T11:53:12.661Z,99071.00
2018-11-05T11:55:42.664Z,99056.00
2018-11-05T11:58:13.515Z,99050.00
2018-11-05T12:00:43.667Z,99054.00
2018-11-05T12:03:13.835Z,99061.00
2018-11-05T12:05:44.476Z,99055.00
2018-11-05T12:08:14.976Z,99040.00
2018-11-05T12:10:45.148Z,99043.00
2018-11-05T12:13:16.099Z,99043.00
2018-11-05T12:15:46.493Z,99039.00
2018-11-05T12:18:17.460Z,99037.00
2018-11-05T12:20:47.563Z,99036.00
2018-11-05T12:23:17.725Z,99028.00
2018-11-05T12:25:47.905Z,99031.00
2018-11-05T12:28:17.866Z,99016.00
2018-11-05T12:30:48.422Z,99019.00
2018-11-05T12:33:18.586Z,99011.00
2018-11-05T12:35:48.965Z,99010.00
2018-11-05T12:38:19.178Z,98996.00
2018-11-05T12:40:49.724Z,99001.00
2018-11-05T12:43:21.164Z,98996.00
2018-11-05T12:45:52.102Z,99003.00
2018-11-05T12:48:22.074Z,98991.00
2018-11-05T12:50:52.053Z,98989.00
2018-11-05T12:53:22.471Z,98996.00
2018-11-05T12:55:52.530Z,98997.00
2018-11-05T12:58:22.804Z,98992.00
2018-11-05T13:00:53.025Z,98994.00
2018-11-05T13:03:23.272Z,98997.00
2018-11-05T13:05:53.524Z,98979.00
2018-11-05T13:08:24.851Z,98983.00
2018-11-05T13:10:55.080Z,98983.00
2018-11-05T13:13:25.532Z,98977.00
2018-11-05T13:15:55.773Z,98979.00
2018-11-05T13:18:26.050Z,98977.00
2018-11-05T13:20:56.375Z,98973.00
2018-11-05T13:23:31.846Z,98972.00
2018-11-05T13:26:02.249Z,98976.00
2018-11-05T13:28:33.243Z,98971.00
2018-11-05T13:31:03.737Z,98971.00
2018-11-05T13:33:33.897Z,98974.00
2018-11-05T13:36:04.337Z,98970.00
2018-11-05T13:38:34.624Z,98970.00
2018-11-05T13:41:05.121Z,98978.00
2018-11-05T13:43:36.659Z,98968.00
2018-11-05T13:46:07.130Z,98970.00
2018-11-05T13:48:37.562Z,98977.00
2018-11-05T13:51:07.802Z,98968.00
2018-11-05T13:53:37.837Z,98964.00
2018-11-05T13:56:08.568Z,98964.00
2018-11-05T13:58:39.228Z,98965.00
2018-11-05T14:01:09.634Z,98956.00
2018-11-05T14:03:39.761Z,98947.00
2018-11-05T14:06:10.405Z,98950.00
2018-11-05T14:08:41.280Z,98948.00
2018-11-05T14:11:11.475Z,98954.00
2018-11-05T14:13:41.677Z,98943.00
2018-11-05T14:16:11.907Z,98951.00
2018-11-05T14:18:42.268Z,98955.00
2018-11-05T14:21:12.453Z,98947.00
2018-11-05T14:23:42.578Z,98947.00
2018-11-05T14:26:13.115Z,98940.00
2018-11-05T14:28:43.265Z,98943.00
2018-11-05T14:31:13.577Z,98945.00
2018-11-05T14:33:43.434Z,98951.00
2018-11-05T14:36:13.350Z,98941.00
2018-11-05T14:38:43.775Z,98948.00
2018-11-05T14:41:13.830Z,98953.00
2018-11-05T14:43:44.051Z,98943.00
2018-11-05T14:46:14.813Z,98944.00
2018-11-05T14:48:45.571Z,98955.00
2018-11-05T14:51:17.521Z,98947.00
2018-11-05T14:53:47.754Z,98939.00
2018-11-05T14:56:17.755Z,98935.00
2018-11-05T14:58:49.556Z,98929.00
2018-11-05T15:01:21.486Z,98937.00
2018-11-05T15:03:53.192Z,98928.00
2018-11-05T15:06:25.406Z,98925.00
2018-11-05T15:08:57.457Z,98927.00
2018-11-05T15:11:29.218Z,98928.00
2018-11-05T15:14:01.088Z,98926.00
2018-11-05T15:16:33.695Z,98919.00
2018-11-05T15:19:05.983Z,98922.00
2018-11-05T15:21:37.730Z,98922.00
2018-11-05T15:24:09.484Z,98922.00
2018-11-05T15:26:41.805Z,98919.00
2018-11-05T15:29:13.675Z,98920.00
2018-11-05T15:31:45.768Z,98915.00
2018-11-05T15:34:17.689Z,98916.00
2018-11-05T15:36:51.474Z,98911.00
2018-11-05T15:39:24.602Z,98909.00
2018-11-05T15:41:56.474Z,98913.00
2018-11-05T15:44:28.528Z,98908.00
2018-11-05T15:47:00.908Z,98899.00
2018-11-05T15:49:32.636Z,98897.00
2018-11-05T15:52:05.772Z,98902.00
2018-11-05T15:54:37.687Z,98896.00
2018-11-05T15:57:10.119Z,98900.00
2018-11-05T15:59:41.733Z,98885.00
2018-11-05T16:02:14.548Z,98895.00
2018-11-05T16:04:46.773Z,98898.00
2018-11-05T16:07:19.952Z,98895.00
2018-11-05T16:09:53.204Z,98888.00
2018-11-05T16:12:24.632Z,98897.00
2018-11-05T16:14:57.454Z,98895.00
2018-11-05T16:17:29.754Z,98897.00
2018-11-05T16:20:01.365Z,98897.00
2018-11-05T16:22:33.623Z,98898.00
2018-11-05T16:25:05.874Z,98887.00
2018-11-05T16:27:37.717Z,98891.00
2018-11-05T16:30:13.728Z,98886.00
2018-11-05T16:32:46.969Z,98879.00
2018-11-05T16:35:19.403Z,98887.00
2018-11-05T16:37:52.452Z,98876.00
2018-11-05T16:40:24.542Z,98879.00
2018-11-05T16:42:56.583Z,98891.00
2018-11-05T16:45:26.879Z,98886.00
2018-11-05T16:47:57.531Z,98885.00
2018-11-05T16:50:28.972Z,98876.00
2018-11-05T16:53:00.415Z,98895.00
2018-11-05T16:55:30.498Z,98881.00
2018-11-05T16:58:00.964Z,98885.00
2018-11-05T17:00:31.275Z,98885.00
2018-11-05T17:03:01.627Z,98881.00
2018-11-05T17:05:31.690Z,98883.00
2018-11-05T17:08:02.040Z,98882.00
2018-11-05T17:10:32.309Z,98880.00
2018-11-05T17:13:03.370Z,98888.00
2018-11-05T17:15:33.947Z,98885.00
2018-11-05T17:18:04.568Z,98876.00
2018-11-05T17:20:35.028Z,98876.00
2018-11-05T17:23:05.093Z,98870.00
2018-11-05T17:25:35.003Z,98861.00
2018-11-05T17:28:05.300Z,98863.00
2018-11-05T17:30:35.595Z,98865.00
2018-11-05T17:33:06.131Z,98873.00
2018-11-05T17:35:36.272Z,98870.00
2018-11-05T17:38:07.015Z,98875.00
2018-11-05T17:40:37.332Z,98875.00
2018-11-05T17:43:07.480Z,98873.00
2018-11-05T17:45:37.551Z,98876.00
2018-11-05T17:48:07.632Z,98874.00
2018-11-05T17:50:37.930Z,98878.00
2018-11-05T17:53:08.222Z,98873.00
2018-11-05T17:55:39.047Z,98875.00
2018-11-05T17:58:10.085Z,98874.00
2018-11-05T18:00:40.585Z,98881.00
2018-11-05T18:03:10.552Z,98882.00
2018-11-05T18:05:41.217Z,98879.00
2018-11-05T18:08:11.680Z,98879.00
2018-11-05T18:10:42.076Z,98875.00
2018-11-05T18:13:12.459Z,98880.00
2018-11-05T18:15:43.736Z,98886.00
2018-11-05T18:18:14.525Z,98885.00
2018-11-05T18:20:44.696Z,98891.00
2018-11-05T18:23:15.221Z,98890.00
2018-11-05T18:25:45.375Z,98884.00
2018-11-05T18:28:15.921Z,98885.00
2018-11-05T18:30:46.018Z,98890.00
2018-11-05T18:33:16.034Z,98887.00
2018-11-05T18:35:46.487Z,98895.00
2018-11-05T18:38:16.738Z,98882.00
2018-11-05T18:40:47.012Z,98879.00
2018-11-05T18:43:17.273Z,98881.00
2018-11-05T18:45:47.355Z,98870.00
2018-11-05T18:48:17.882Z,98867.00
2018-11-05T18:50:47.812Z,98869.00
2018-11-05T18:53:18.727Z,98868.00
2018-11-05T18:55:49.020Z,98869.00
2018-11-05T18:58:19.235Z,98864.00
2018-11-05T19:00:49.634Z,98860.00
2018-11-05T19:03:21.190Z,98872.00
2018-11-05T19:05:52.519Z,98869.00
2018-11-05T19:08:22.740Z,98865.00
2018-11-05T19:10:53.507Z,98872.00
2018-11-05T19:13:23.751Z,98868.00
2018-11-05T19:15:53.905Z,98861.00
2018-11-05T19:18:24.061Z,98862.00
2018-11-05T19:20:54.402Z,98860.00
2018-11-05T19:23:24.977Z,98864.00
2018-11-05T19:25:55.375Z,98860.00
2018-11-05T19:28:25.690Z,98861.00
2018-11-05T19:30:56.149Z,98857.00
2018-11-05T19:33:26.687Z,98857.00
2018-11-05T19:35:56.856Z,98858.00
2018-11-05T19:38:27.676Z,98858.00
2018-11-05T19:40:58.066Z,98860.00
2018-11-05T19:43:28.050Z,98851.00
2018-11-05T19:45:58.639Z,98846.00
2018-11-05T19:48:28.780Z,98836.00
2018-11-05T19:50:59.809Z,98845.00
2018-11-05T19:53:29.898Z,98846.00
2018-11-05T19:56:00.172Z,98841.00
2018-11-05T19:58:30.895Z,98845.00
2018-11-05T20:01:01.241Z,98851.00
2018-11-05T20:03:32.458Z,98844.00
2018-11-05T20:06:02.629Z,98841.00
2018-11-05T20:08:33.346Z,98834.00
2018-11-05T20:11:03.596Z,98839.00
2018-11-05T20:13:33.846Z,98835.00
2018-11-05T20:16:04.151Z,98840.00
2018-11-05T20:18:34.264Z,98838.00
2018-11-05T20:21:04.833Z,98844.00
2018-11-05T20:23:35.080Z,98841.00
2018-11-05T20:26:05.811Z,98838.00
2018-11-05T20:28:36.914Z,98838.00
2018-11-05T20:31:07.634Z,98844.00
2018-11-05T20:33:38.473Z,98846.00
2018-11-05T20:36:08.839Z,98839.00
2018-11-05T20:38:39.329Z,98839.00
2018-11-05T20:41:09.303Z,98837.00
2018-11-05T20:43:40.196Z,98840.00
2018-11-05T20:46:10.428Z,98832.00
2018-11-05T20:48:40.995Z,98846.00
2018-11-05T20:51:10.864Z,98842.00
2018-11-05T20:53:40.987Z,98843.00
2018-11-05T20:56:11.351Z,98838.00
2018-11-05T20:58:41.611Z,98830.00
2018-11-05T21:01:11.933Z,98832.00
2018-11-05T21:03:42.036Z,98829.00
2018-11-05T21:06:12.281Z,98827.00
2018-11-05T21:08:43.221Z,98827.00
2018-11-05T21:11:13.890Z,98822.00
2018-11-05T21:13:44.068Z,98820.00
2018-11-05T21:16:14.647Z,98826.00
2018-11-05T21:18:44.691Z,98823.00
2018-11-05T21:21:15.164Z,98828.00
2018-11-05T21:23:45.239Z,98822.00
2018-11-05T21:26:15.983Z,98821.00
2018-11-05T21:28:46.960Z,98816.00
2018-11-05T21:31:17.504Z,98813.00
2018-11-05T21:33:48.240Z,98810.00
2018-11-05T21:36:18.734Z,98807.00
2018-11-05T21:38:49.091Z,98801.00
2018-11-05T21:41:19.114Z,98796.00
2018-11-05T21:43:49.632Z,98785.00
2018-11-05T21:46:20.801Z,98809.00
2018-11-05T21:48:51.860Z,98800.00
2018-11-05T21:51:22.462Z,98791.00
2018-11-05T21:53:52.704Z,98785.00
2018-11-05T21:56:23.092Z,98798.00
2018-11-05T21:58:53.370Z,98787.00
2018-11-05T22:01:26.275Z,98796.00
2018-11-05T22:03:56.623Z,98776.00
2018-11-05T22:06:26.849Z,98779.00
2018-11-05T22:08:57.124Z,98792.00
2018-11-05T22:11:27.207Z,98791.00
2018-11-05T22:13:57.557Z,98795.00
2018-11-05T22:16:27.666Z,98796.00
2018-11-05T22:18:57.715Z,98786.00
2018-11-05T22:21:29.443Z,98780.00
2018-11-05T22:24:06.912Z,98782.00
2018-11-05T22:26:37.109Z,98778.00
2018-11-05T22:29:07.366Z,98784.00
2018-11-05T22:31:39.638Z,98773.00
2018-11-05T22:34:09.921Z,98763.00
2018-11-05T22:36:40.657Z,98770.00
2018-11-05T22:39:11.290Z,98752.00
2018-11-05T22:41:41.638Z,98745.00
2018-11-05T22:44:11.754Z,98747.00
2018-11-05T22:46:41.951Z,98745.00
2018-11-05T22:49:12.262Z,98733.00
2018-11-05T22:51:43.343Z,98731.00
2018-11-05T22:54:20.238Z,98733.00
2018-11-05T22:56:50.546Z,98733.00
2018-11-05T22:59:20.800Z,98729.00
2018-11-05T23:01:53.524Z,98726.00
2018-11-05T23:04:23.702Z,98719.00
2018-11-05T23:06:54.046Z,98726.00
2018-11-05T23:09:24.098Z,98714.00
2018-11-05T23:11:54.222Z,98715.00
2018-11-05T23:14:24.328Z,98705.00
2018-11-05T23:16:54.465Z,98707.00
2018-11-05T23:19:27.611Z,98706.00
2018-11-05T23:21:57.988Z,98708.00
2018-11-05T23:24:28.553Z,98707.00
2018-11-05T23:26:58.723Z,98722.00
2018-11-05T23:29:29.311Z,98720.00
2018-11-05T23:31:59.748Z,98710.00
2018-11-05T23:34:29.979Z,98708.00
2018-11-05T23:37:00.278Z,98707.00
2018-11-05T23:39:30.483Z,98702.00
2018-11-05T23:42:01.048Z,98705.00
2018-11-05T23:44:32.485Z,98706.00
2018-11-05T23:47:03.484Z,98697.00
2018-11-05T23:49:36.076Z,98698.00
2018-11-05T23:52:06.199Z,98704.00
2018-11-05T23:54:36.827Z,98716.00
2018-11-05T23:57:06.964Z,98705.00
2018-11-05T23:59:37.292Z,98704.00
